Aviation Digital Data Service (ADDS)

Output produced by METARs form (1303 UTC 21 May 2018)
found at http://aviationweather.gov/adds/metars/
 
KSHV 211149Z 2112/2212 VRB03KT P6SM BKN120 OVC250 
     FM211500 24005KT P6SM SCT100 BKN250 
     FM211800 24007KT P6SM VCTS BKN040CB BKN150 BKN250 
     TEMPO 2120/2124 5SM -TSRA OVC040CB 
     FM220100 VRB03KT P6SM FEW150 SCT250